Terminal Aerodrome Forecast
Issued by NWS El Paso, TX

Home | Current Version | Previous Version | Text Only | Print | Product List | Glossary On
Versions: 1 2 3 4 5 6 7 8 9 10 11 12
000
FTUS44 KEPZ 301700
TAFELP
TAF
KELP 301723Z 3018/3118 18009KT P6SM BKN110 OVC200
     FM302200 23008KT P6SM BKN100 BKN200
     FM310900 29005KT P6SM SCT070 BKN090 OVC200=

USA.gov is the U.S. government's official web portal to all federal, state and local government web resources and services.